Terminal Aerodrome Forecast
Issued by NWS Duluth, MN

Home | Current Version | Previous Version | Text Only | Print | Product List | Glossary On
Versions: 1 2 3 4 5 6 7 8 9 10 11 12 13 14 15 16 17 18 19 20 21
000
FTUS43 KDLH 260540
TAFINL
TAF
KINL 260540Z 2606/2706 29006KT P6SM VCSH SCT025 BKN080
     FM261400 30006KT P6SM SCT040
     FM270000 23003KT P6SM SCT040 BKN100=

USA.gov is the U.S. government's official web portal to all federal, state and local government web resources and services.